Akiachak, Alaska
Current Conditions -  °F | °C
As of 12:56 PM on Monday 26 Jan 2015 (Local Time) from PFKW Reporting Station
Few Clouds Few Clouds  
Wind Chill: -35°   Ceiling: Unl
Heat Index: -23°   Visibility: 10mi
Dew Point: -27°   Wind: 15mph
Humidity: 71%   Direction: 40°NE
Pressure: 29.84"   Gusts: 20mph
Location:  60.91°N, 161.44°W
Report Text: PFKW 262156Z AUTO 04013G17KT 10SM FEW100 M23/M27 A2984 RMK AO2 SLP105 T12281267 FZRANO
Loading
Personal Weather Stations






























Interactive Weather Map New forecast layout! Learn more

10-Day Weather Forecast

Advertisements
Track Severe Weather on mobile